x

Buoy A01 - Mass. Bay/stellwagen (44029) Wave Buoy

2:04 - Wed 16th Apr 2014 All times are EDT. -4 hours from GMT.

  • Sig Wave height 5.2ft
  • Peak Period 11s
  • Wind
    16mph, 20mph gusts
  • Sea Temp 40°f
  • Ar Temp 36°f
  • Sea Pressure 1026.4mb
  • Buoy A01 - Mass. Bay/stellwagen
  • Buoy A01 - Mass. Bay/stellwagen

More Historic Weather Station data

Upgrade to MSW Pro to gain access to the past 30 days of data for over 8000 Wavebouys and Weather Stations around the globe.

Join Pro

Comparision Forecast

View Surf forecast
   
Qua 04/16 2:04 5ft 11s 16 20 mph 1026.4mb 40f 36f
1:04 5ft 11s 18 22 mph 1025.1mb 39f 35f
12:04 4.5ft 11s 22 27 mph 1023.9mb 39f 34f
11:04 3.5ft 4s 25 36 mph 1022.9mb 39f 32f
10:04 4ft 4s 27 36 mph 1021.5mb 39f 32f
9:04 3ft 4s 29 36 mph 1020.3mb 39f 31f
8:04 4ft 4s 31 38 mph 1018.3mb 39f 31f
7:04 4.5ft 4s 29 36 mph 1015.4mb 39f 32f
6:04 3.5ft 4s 29 36 mph 1013.4mb 39f 34f
5:04 2.5ft 3s 27 31 mph 1011mb 39f 33f
4:04 3.5ft 8s 20 22 mph 1009.6mb 39f 37f
3:04 3.5ft 8s 22 27 mph 1007.2mb 40f 38f
2:04  -   -  22 27 mph 1006.6mb 40f 39f
1:04 3.5ft 5s 27 31 mph 1005.4mb 41f 42f
12:04 5ft 5s 20 25 mph 1003.5mb 41f 44f
Ter 04/15 11:04 5ft 6s 16 20 mph 1001.6mb 41f 47f
10:04 6ft 6s 18 22 mph 1000.7mb 41f 49f
9:04 6ft 6s 18 20 mph 1000.7mb 41f 47f
8:04 6ft 6s 18 20 mph 1000.9mb 41f 48f
7:04 6ft 5s 22 27 mph 1000.8mb 41f 50f
6:04 6ft 6s 27 31 mph 1001.4mb 42f 51f
5:04 6ft 6s 22 27 mph 1002.1mb 42f 49f
4:04 6.5ft 6s 22 27 mph 1002.4mb 42f 50f
3:04 5ft 5s 22 25 mph 1002.9mb 42f 50f
2:04 5ft 5s 22 25 mph 1004.1mb 42f 51f
1:04 3.5ft 5s 25 27 mph 1004.5mb 42f 52f
12:04 4.5ft 5s 16 18 mph 1006mb 42f 48f
7:04 4ft 5s 22 25 mph 1010mb 42f 49f
6:04 4ft 5s 13 16 mph 1010.2mb 42f 48f
5:04 4ft 5s 18 20 mph 1010.3mb 42f 50f
4:04 4ft 5s 11 13 mph 1010.4mb 42f 47f
3:04 3.5ft 5s 11
mph
1010.9mb 43f 47f
2:04 4ft 5s 9
mph
1011.1mb 42f 47f
1:04 3.5ft 5s 11 13 mph 1011.6mb 42f 48f
12:04 4ft 5s 13 16 mph 1011.5mb 42f 47f
Seg 04/14 11:04 4ft 5s 11 13 mph 1011.7mb 42f 47f
10:04 4ft 5s 13 16 mph 1012mb 42f 48f
9:04 4.5ft 5s 18 20 mph 1012mb 42f 49f
8:04 5ft 5s 18 20 mph 1012mb 42f 51f
7:04 4.5ft 5s 20 22 mph 1011.4mb 42f 52f
6:04 4ft 5s 16 20 mph 1011.5mb 42f 51f
5:04 4.5ft 5s 20 22 mph 1011.8mb 42f 53f
4:04 4.5ft 5s 22 27 mph 1011.7mb 42f 54f
3:04 4ft 5s 22 27 mph 1011.9mb 42f 55f
2:04 3.5ft 5s 16 20 mph 1012.1mb 42f 52f
1:04 3.5ft 5s 16 18 mph 1012.4mb 42f 51f
12:04 3.5ft 5s 16 20 mph 1013.1mb 42f 51f
11:04 3ft 5s 16 18 mph 1013.6mb 42f 49f
10:04 3.5ft 5s 18 20 mph 1013.7mb 42f 50f
9:04 3.5ft 5s 20 22 mph 1013.7mb 42f 50f
8:04 3.5ft 5s 18 20 mph 1014.2mb 42f 50f
7:04 3ft 5s 11
mph
1014.4mb 42f 46f
6:04 2.5ft 5s 13
mph
1014.3mb 42f 47f
5:04 3ft 5s 11
mph
1014.5mb 42f 47f
4:04 2.5ft 5s 13 16 mph 1014.5mb 42f 47f
3:04 2.5ft 5s 11 13 mph 1014.8mb 41f 47f
2:04 2.5ft 5s 9 11 mph 1015mb 41f 45f
1:04 2.5ft 5s 11
mph
1015.3mb 41f 46f
12:04 2.5ft 5s 11 13 mph 1015.6mb 41f 44f
Dom 04/13 11:04 2.5ft 5s 2 4 mph 1016.2mb 41f 44f
10:04 2.5ft 5s 4 9 mph 1016.5mb 42f 44f
9:04 3ft 5s 2
mph
1016.3mb 42f 42f
8:04 3.5ft 4s 9 11 mph 1016.5mb 42f 46f
7:04 3ft 5s 13 18 mph 1015.4mb 42f 46f
6:04 3.5ft 4s 18 20 mph 1016.2mb 42f 46f
5:04 3.5ft 4s 18 22 mph 1016.6mb 41f 46f
4:04 2.5ft 8s 16 18 mph 1018.1mb 41f 46f
3:04 1.6ft 8s 16 18 mph 1019.4mb 41f 45f
2:04 1.6ft 8s 7 9 mph 1021.1mb 41f 44f
1:04 2ft 11s 7
mph
1021.4mb 41f 40f
12:04 1.6ft 8s 4 7 mph 1022.5mb 41f 42f
11:04 2ft 8s 7 9 mph 1023.2mb 41f 40f
10:04 2ft 8s  -  2 mph 1024.2mb 41f 41f
9:04 2.5ft 8s 7 9 mph 1022.8mb 41f 41f
8:04 2ft 8s 9
mph
1023mb 41f 42f
7:04 2ft 8s 4
mph
1022.8mb 41f 41f
6:04 2ft 8s 2 4 mph 1022.6mb 41f 41f
5:04 2ft 8s 4 7 mph 1022.7mb 41f 42f
4:04 2ft 8s 2 4 mph 1022.7mb 41f 43f
3:04 2ft 8s 2 7 mph 1022.1mb 41f 41f
2:04 2.5ft 8s 4 7 mph 1022.1mb 41f 42f
1:04 2ft 8s 7 9 mph 1021.6mb 41f 42f
12:04 1.3ft 4s 7
mph
1021.2mb 41f 43f
Sáb 04/12 11:04 2.5ft 8s 9 11 mph 1021.2mb 42f 43f
10:04 1.6ft 4s 11
mph
1021mb 42f 42f
9:04 2.5ft 8s 11 13 mph 1020.7mb 42f 44f
8:04 1.6ft 4s 16 18 mph 1020.1mb 42f 46f